Time;durP1;ratioP1;P1;durP2;ratioP2;P2;SDS_P1;SDS_P2;PMS_P1;PMS_P2;Temp;Humidity;BMP_temperature;BMP_pressure;BME280_temperature;BME280_humidity;BME280_pressure;Samples;Min_cycle;Max_cycle;Signal;HPM_P1;HPM_P2
2022/01/19 00:01:32;;;;;;;5.82;2.60;;;;;;;-3.83;100.00;100271.66;5154773;27;20050;-48
2022/01/19 00:03:59;;;;;;;7.68;2.90;;;;;;;-3.85;100.00;100266.53;5154144;27;20043;-50
2022/01/19 00:06:26;;;;;;;12.70;3.35;;;;;;;-3.84;100.00;100262.78;5154703;27;20050;-48
2022/01/19 00:08:52;;;;;;;11.43;3.17;;;;;;;-3.78;100.00;100266.38;5154273;27;20049;-49
2022/01/19 00:11:19;;;;;;;6.40;2.88;;;;;;;-3.71;100.00;100266.22;5154272;27;20133;-48
2022/01/19 00:13:45;;;;;;;7.30;3.45;;;;;;;-3.61;100.00;100261.00;5154302;27;20054;-50
2022/01/19 00:16:11;;;;;;;10.32;2.90;;;;;;;-3.57;100.00;100249.53;5154178;27;20055;-49
2022/01/19 00:18:38;;;;;;;10.07;3.40;;;;;;;-3.54;100.00;100248.25;5154237;27;20053;-49
2022/01/19 00:21:04;;;;;;;10.38;3.25;;;;;;;-3.52;100.00;100243.47;5154104;27;20047;-48
2022/01/19 00:23:31;;;;;;;12.77;2.97;;;;;;;-3.51;100.00;100234.34;5154271;27;20470;-48
2022/01/19 00:25:58;;;;;;;10.00;3.35;;;;;;;-3.50;100.00;100230.59;5153841;27;20047;-49
2022/01/19 00:28:24;;;;;;;7.50;3.28;;;;;;;-3.49;100.00;100234.13;5154431;27;20047;-49
2022/01/19 00:30:51;;;;;;;12.85;3.20;;;;;;;-3.43;100.00;100233.94;5153593;27;20043;-48
2022/01/19 00:33:19;;;;;;;12.25;3.67;;;;;;;-3.38;100.00;100243.94;5154327;27;20058;-49
2022/01/19 00:35:45;;;;;;;12.77;4.03;;;;;;;-3.34;100.00;100243.19;5153719;27;20060;-50
2022/01/19 00:38:12;;;;;;;7.05;3.05;;;;;;;-3.28;100.00;100243.25;5153647;27;20051;-50
2022/01/19 00:40:40;;;;;;;11.80;3.92;;;;;;;-3.26;100.00;100235.78;5153803;27;20167;-48
2022/01/19 00:43:07;;;;;;;7.50;3.05;;;;;;;-3.20;100.00;100237.47;5153763;27;20053;-50
2022/01/19 00:45:33;;;;;;;8.23;3.72;;;;;;;-3.25;100.00;100230.16;5153535;27;20058;-50
2022/01/19 00:48:00;;;;;;;6.30;3.20;;;;;;;-3.21;100.00;100223.25;5153699;27;20054;-52
2022/01/19 00:50:29;;;;;;;5.82;3.05;;;;;;;-3.15;100.00;100224.13;5153234;27;20466;-49
2022/01/19 00:52:56;;;;;;;4.90;2.67;;;;;;;-3.08;100.00;100222.88;5153694;27;20057;-49
2022/01/19 00:55:25;;;;;;;11.82;3.35;;;;;;;-3.05;100.00;100213.53;5153613;27;20057;-48
2022/01/19 00:57:52;;;;;;;9.15;3.25;;;;;;;-3.13;100.00;100200.56;5153444;27;20046;-50
2022/01/19 01:00:21;;;;;;;9.02;3.33;;;;;;;-3.13;100.00;100203.25;5153995;27;20043;-48
2022/01/19 01:02:48;;;;;;;9.77;3.38;;;;;;;-3.16;100.00;100188.44;5153378;27;20047;-49
2022/01/19 01:05:14;;;;;;;8.32;3.05;;;;;;;-3.12;100.00;100199.50;5153301;27;20102;-49
2022/01/19 01:07:41;;;;;;;13.43;3.00;;;;;;;-3.07;100.00;100183.44;5153536;27;20051;-48
2022/01/19 01:10:08;;;;;;;10.68;3.42;;;;;;;-3.06;100.00;100178.91;5153393;27;20466;-49
2022/01/19 01:12:46;;;;;;;8.68;3.42;;;;;;;-3.15;100.00;100173.97;5153305;27;20082;-48
2022/01/19 01:15:27;;;;;;;5.63;3.08;;;;;;;-3.09;100.00;100172.97;5153255;27;20133;-48
2022/01/19 01:20:39;;;;;;;8.57;2.92;;;;;;;-3.02;100.00;100175.47;5153192;27;20050;-50
2022/01/19 01:23:07;;;;;;;6.68;3.00;;;;;;;-3.00;100.00;100172.53;5153017;27;20047;-49
2022/01/19 01:25:34;;;;;;;6.93;3.30;;;;;;;-2.96;100.00;100161.06;5152873;27;20099;-50
2022/01/19 01:28:00;;;;;;;14.27;3.42;;;;;;;-2.97;100.00;100159.41;5153155;27;20102;-50
2022/01/19 01:30:27;;;;;;;9.25;4.03;;;;;;;-3.05;100.00;100156.38;5153120;27;20499;-49
2022/01/19 01:32:53;;;;;;;8.20;3.22;;;;;;;-3.18;100.00;100155.69;5152924;27;20046;-50
2022/01/19 01:35:20;;;;;;;8.57;3.80;;;;;;;-3.21;100.00;100155.38;5152939;27;20051;-49
2022/01/19 01:37:46;;;;;;;10.63;3.28;;;;;;;-3.28;100.00;100150.22;5152708;27;20050;-49
2022/01/19 01:40:13;;;;;;;7.28;2.70;;;;;;;-3.29;100.00;100137.06;5153039;27;20068;-48
2022/01/19 01:42:40;;;;;;;8.52;3.55;;;;;;;-3.24;100.00;100134.44;5152232;27;20050;-51
2022/01/19 01:45:12;;;;;;;11.13;3.78;;;;;;;-3.17;100.00;100127.81;5152553;27;20092;-50
2022/01/19 01:47:44;;;;;;;9.63;3.90;;;;;;;-3.04;100.00;100113.19;5152665;27;20107;-49
2022/01/19 01:55:42;;;;;;;9.77;3.50;;;;;;;-2.91;100.00;100074.44;5152464;27;20058;-50
2022/01/19 01:58:08;;;;;;;9.15;4.43;;;;;;;-2.90;100.00;100081.41;5152817;27;20398;-49
2022/01/19 02:00:34;;;;;;;15.40;6.05;;;;;;;-2.80;100.00;100072.66;5152375;27;20046;-51
2022/01/19 02:03:01;;;;;;;15.38;3.50;;;;;;;-2.82;100.00;100075.59;5152774;27;20078;-49
2022/01/19 02:05:28;;;;;;;7.90;3.38;;;;;;;-2.86;100.00;100066.44;5152310;27;20559;-50
2022/01/19 02:08:04;;;;;;;7.60;2.92;;;;;;;-2.91;100.00;100067.19;5152482;27;20524;-49
2022/01/19 02:10:37;;;;;;;8.63;3.28;;;;;;;-2.99;100.00;100048.88;5152207;27;20042;-48
2022/01/19 02:15:59;;;;;;;;;;;;;;;-3.04;100.00;100029.22;5153030;27;20090;-48
2022/01/19 02:23:54;;;;;;;10.77;3.22;;;;;;;-2.93;100.00;99996.06;5134749;27;20626;-49
2022/01/19 02:26:27;;;;;;;8.57;3.40;;;;;;;-2.84;100.00;99983.78;5151873;27;20046;-49
2022/01/19 02:40:11;;;;;;;6.50;3.40;;;;;;;-2.82;100.00;99954.03;5152017;27;20045;-52
2022/01/19 02:42:51;;;;;;;8.60;3.92;;;;;;;-2.76;100.00;99936.91;5152022;27;20046;-50
2022/01/19 02:50:46;;;;;;;;;;;;;;;-2.62;100.00;99919.28;5151547;27;20142;-49
2022/01/19 02:53:12;;;;;;;10.32;2.63;;;;;;;-2.61;100.00;99912.84;5151555;27;20389;-50
2022/01/19 02:55:39;;;;;;;9.55;4.30;;;;;;;-2.56;100.00;99904.03;5150585;27;20054;-49
2022/01/19 02:58:05;;;;;;;9.35;3.40;;;;;;;-2.56;100.00;99909.41;5151642;27;20082;-49
2022/01/19 03:09:12;;;;;;;15.85;4.32;;;;;;;-2.61;100.00;99921.69;5087662;28;20063;-50
2022/01/19 03:11:38;;;;;;;7.55;3.40;;;;;;;-2.50;100.00;99921.75;5087726;28;20173;-50
2022/01/19 03:14:08;;;;;;;12.50;4.15;;;;;;;-2.47;100.00;99915.88;5115438;27;20046;-49
2022/01/19 03:16:34;;;;;;;14.60;3.80;;;;;;;-2.41;100.00;99912.16;5151142;27;20058;-49
2022/01/19 03:19:00;;;;;;;6.45;3.25;;;;;;;-2.40;100.00;99906.53;5151686;27;20055;-49
2022/01/19 03:21:26;;;;;;;12.90;2.80;;;;;;;-2.37;100.00;99918.59;5151290;27;20051;-49
2022/01/19 03:23:53;;;;;;;9.07;2.95;;;;;;;-2.29;100.00;99909.25;5151579;27;20046;-49
2022/01/19 03:26:19;;;;;;;12.80;3.25;;;;;;;-2.23;100.00;99900.97;5151179;27;20054;-49
2022/01/19 03:28:46;;;;;;;7.15;3.00;;;;;;;-2.21;100.00;99903.38;5151325;27;20042;-50
2022/01/19 03:31:12;;;;;;;9.95;2.60;;;;;;;-2.15;100.00;99910.38;5151074;27;20047;-53
2022/01/19 03:33:38;;;;;;;10.52;3.03;;;;;;;-2.16;100.00;99920.34;5151220;27;20532;-49
2022/01/19 03:36:05;;;;;;;12.18;3.13;;;;;;;-2.14;100.00;99925.44;5151171;27;20057;-51
2022/01/19 03:38:31;;;;;;;7.38;3.13;;;;;;;-2.10;100.00;99921.13;5150753;27;20051;-53
2022/01/19 03:40:57;;;;;;;6.13;3.05;;;;;;;-2.04;100.00;99924.66;5151101;27;20499;-48
2022/01/19 03:43:24;;;;;;;7.78;3.25;;;;;;;-2.02;100.00;99928.72;5151017;27;20057;-49
2022/01/19 03:45:52;;;;;;;9.35;3.30;;;;;;;-2.03;100.00;99932.47;5151295;27;20046;-51
2022/01/19 03:48:34;;;;;;;13.82;2.95;;;;;;;-2.00;100.00;99937.31;5150746;27;20137;-51
2022/01/19 03:51:00;;;;;;;10.88;3.13;;;;;;;-1.97;100.00;99935.97;5150997;27;20050;-51
2022/01/19 03:53:27;;;;;;;12.35;3.35;;;;;;;-1.98;100.00;99929.78;5151154;27;20389;-52
2022/01/19 03:55:53;;;;;;;6.82;2.45;;;;;;;-1.93;100.00;99935.19;5151126;27;20107;-50
2022/01/19 03:58:19;;;;;;;9.82;3.63;;;;;;;-1.88;100.00;99939.78;5150807;27;20051;-49
2022/01/19 04:00:46;;;;;;;4.78;2.53;;;;;;;-1.84;100.00;99934.69;5150839;27;20054;-49
2022/01/19 04:03:17;;;;;;;16.55;6.35;;;;;;;-1.78;100.00;99930.94;5150803;27;20051;-48
2022/01/19 04:05:54;;;;;;;8.90;3.30;;;;;;;-1.77;100.00;99924.47;5150688;27;20054;-50
2022/01/19 04:08:21;;;;;;;8.48;3.50;;;;;;;-1.73;100.00;99922.91;5154156;27;20050;-51
2022/01/19 04:10:47;;;;;;;9.70;3.10;;;;;;;-1.65;100.00;99933.13;5154317;27;20058;-49
2022/01/19 04:13:25;;;;;;;10.07;3.75;;;;;;;-1.64;100.00;99933.94;5154594;27;20043;-49
2022/01/19 04:15:52;;;;;;;10.07;4.10;;;;;;;-1.63;100.00;99922.94;5154372;27;20058;-49
2022/01/19 04:18:19;;;;;;;16.52;7.35;;;;;;;-1.60;100.00;99929.63;5154894;27;20344;-49
2022/01/19 04:20:49;;;;;;;9.90;3.60;;;;;;;-1.53;100.00;99930.22;5153955;27;20511;-50
2022/01/19 04:23:16;;;;;;;5.82;3.28;;;;;;;-1.45;100.00;99932.38;5153659;27;20102;-51
2022/01/19 04:25:42;;;;;;;7.03;2.80;;;;;;;-1.44;100.00;99937.47;5154137;27;20050;-49
2022/01/19 04:28:08;;;;;;;9.07;3.00;;;;;;;-1.37;100.00;99944.47;5153897;27;20047;-50
2022/01/19 04:30:35;;;;;;;7.47;3.22;;;;;;;-1.35;100.00;99935.06;5153771;27;20050;-49
2022/01/19 04:33:07;;;;;;;5.35;2.50;;;;;;;-1.29;100.00;99934.00;5153703;27;20046;-50
2022/01/19 04:35:44;;;;;;;8.98;3.45;;;;;;;-1.26;100.00;99916.53;5153754;27;20054;-49
2022/01/19 05:03:19;;;;;;;7.15;3.53;;;;;;;-1.04;100.00;99848.97;5126440;27;20050;-50
2022/01/19 05:05:52;;;;;;;5.60;3.13;;;;;;;-0.96;100.00;99833.09;5153224;27;20062;-50
2022/01/19 05:08:36;;;;;;;6.75;2.88;;;;;;;-0.84;100.00;99829.28;5153550;27;20284;-51
2022/01/19 05:13:51;;;;;;;7.57;3.92;;;;;;;-1.00;100.00;99858.09;5153113;27;20046;-51
2022/01/19 05:16:19;;;;;;;13.73;3.72;;;;;;;-0.94;100.00;99870.47;5172588;27;20141;-56
2022/01/19 05:18:45;;;;;;;11.35;3.30;;;;;;;-0.86;100.00;99866.44;5173280;27;20046;-58
2022/01/19 05:21:12;;;;;;;7.82;3.05;;;;;;;-0.50;100.00;99850.97;5173611;27;20053;-50
2022/01/19 05:23:39;;;;;;;15.57;4.22;;;;;;;-0.40;100.00;99855.53;5173398;27;20118;-53
2022/01/19 05:26:05;;;;;;;17.30;5.13;;;;;;;-0.42;100.00;99882.75;5164764;27;20053;-55
2022/01/19 05:28:31;;;;;;;10.85;4.00;;;;;;;-0.37;100.00;99890.00;5163629;27;20083;-52
2022/01/19 05:30:57;;;;;;;6.95;3.88;;;;;;;-0.37;100.00;99892.69;5153994;27;20056;-51
2022/01/19 05:33:24;;;;;;;12.63;5.43;;;;;;;-0.38;100.00;99899.19;5169608;27;20042;-53
2022/01/19 05:35:50;;;;;;;9.70;4.22;;;;;;;-0.33;100.00;99897.28;5167500;27;20517;-51
2022/01/19 05:38:17;;;;;;;12.70;3.80;;;;;;;-0.32;100.00;99892.69;5167867;27;20046;-50
2022/01/19 05:40:43;;;;;;;13.98;3.80;;;;;;;-0.28;100.00;99896.44;5153129;27;20501;-53
2022/01/19 05:43:10;;;;;;;7.57;3.33;;;;;;;-0.36;100.00;99897.03;5160694;27;20046;-50
2022/01/19 05:45:36;;;;;;;5.75;3.20;;;;;;;-0.41;100.00;99887.06;5159992;27;20046;-54
2022/01/19 05:48:03;;;;;;;9.45;3.90;;;;;;;-0.43;100.00;99893.78;5153761;27;20046;-52
2022/01/19 05:50:29;;;;;;;11.77;4.40;;;;;;;-0.48;100.00;99887.34;5153186;27;20049;-51
2022/01/19 05:52:56;;;;;;;10.23;4.38;;;;;;;-0.45;100.00;99882.50;5162731;27;20046;-52
2022/01/19 05:55:23;;;;;;;14.07;4.90;;;;;;;-0.42;100.00;99865.78;5176103;27;20099;-52
2022/01/19 05:57:49;;;;;;;9.32;3.85;;;;;;;-0.39;100.00;99852.56;5157432;27;20042;-53
2022/01/19 06:00:16;;;;;;;13.50;4.22;;;;;;;-0.40;100.00;99859.06;5164667;27;20050;-51
2022/01/19 06:02:42;;;;;;;10.68;3.60;;;;;;;-0.33;100.00;99853.38;5153422;27;20509;-50
2022/01/19 06:05:09;;;;;;;11.80;3.90;;;;;;;-0.21;100.00;99834.19;5152635;27;20046;-54
2022/01/19 06:07:42;;;;;;;7.53;3.15;;;;;;;-0.11;100.00;99823.34;5153746;27;20070;-51
2022/01/19 06:10:11;;;;;;;12.38;3.85;;;;;;;-0.02;100.00;99811.69;5164063;27;20042;-52
2022/01/19 06:12:38;;;;;;;13.65;4.38;;;;;;;-0.05;100.00;99811.44;5175209;27;20050;-51
2022/01/19 06:15:06;;;;;;;9.80;3.75;;;;;;;-0.01;100.00;99836.75;5163317;27;20047;-51
2022/01/19 06:17:32;;;;;;;10.57;3.53;;;;;;;-0.09;100.00;99846.25;5153589;27;20054;-54
2022/01/19 06:19:58;;;;;;;10.18;4.38;;;;;;;-0.11;100.00;99834.91;5151413;27;20070;-57
2022/01/19 06:22:25;;;;;;;10.00;4.30;;;;;;;-0.17;100.00;99852.19;5152078;27;20055;-58
2022/01/19 06:24:51;;;;;;;13.35;4.18;;;;;;;-0.23;100.00;99837.16;5151867;27;20042;-57
2022/01/19 06:27:17;;;;;;;11.05;4.65;;;;;;;-0.14;100.00;99830.09;5151467;27;20046;-56
2022/01/19 06:29:44;;;;;;;11.02;4.80;;;;;;;-0.09;100.00;99827.38;5151636;27;20057;-57
2022/01/19 06:32:10;;;;;;;9.73;4.03;;;;;;;-0.01;100.00;99840.25;5151174;27;20072;-56
2022/01/19 06:34:37;;;;;;;10.73;4.85;;;;;;;0.01;100.00;99823.81;5171374;27;20048;-55
2022/01/19 06:37:04;;;;;;;9.27;4.43;;;;;;;0.02;100.00;99811.16;5170873;27;20066;-56
2022/01/19 06:39:30;;;;;;;13.13;5.00;;;;;;;0.01;100.00;99823.81;5162180;27;20061;-51
2022/01/19 06:41:56;;;;;;;14.73;4.47;;;;;;;-0.02;100.00;99837.84;5169542;27;20476;-50
2022/01/19 06:44:22;;;;;;;11.73;5.93;;;;;;;-0.06;100.00;99840.31;5162224;27;20046;-54
2022/01/19 06:46:49;;;;;;;15.52;6.13;;;;;;;-0.15;100.00;99839.25;5156148;27;20058;-50
2022/01/19 06:49:15;;;;;;;20.52;7.13;;;;;;;-0.20;100.00;99838.47;5166866;27;20493;-53
2022/01/19 06:51:42;;;;;;;9.63;5.38;;;;;;;-0.08;100.00;99831.69;5172736;27;20611;-52
2022/01/19 06:54:08;;;;;;;13.77;6.13;;;;;;;-0.03;100.00;99828.97;5159865;27;20055;-50
2022/01/19 06:56:37;;;;;;;15.70;6.25;;;;;;;-0.03;100.00;99833.56;5170079;27;20050;-51
2022/01/19 06:59:03;;;;;;;9.95;5.80;;;;;;;-0.08;100.00;99838.97;5151192;27;20072;-52
2022/01/19 07:01:32;;;;;;;13.27;6.13;;;;;;;-0.02;100.00;99848.63;5151593;27;20050;-57
2022/01/19 07:03:59;;;;;;;17.27;6.72;;;;;;;-0.02;100.00;99841.34;5151354;27;20062;-54
2022/01/19 07:06:25;;;;;;;15.18;6.47;;;;;;;-0.07;100.00;99833.31;5151047;27;20058;-53
2022/01/19 07:08:51;;;;;;;17.20;7.13;;;;;;;-0.06;100.00;99834.09;5171364;27;20050;-53
2022/01/19 07:11:17;;;;;;;14.25;6.55;;;;;;;-0.10;100.00;99841.13;5171823;27;20109;-52
2022/01/19 07:13:44;;;;;;;11.35;6.30;;;;;;;-0.20;100.00;99858.16;5166664;27;20050;-50
2022/01/19 07:16:10;;;;;;;23.70;7.03;;;;;;;-0.16;100.00;99859.22;5151336;27;20062;-52
2022/01/19 07:18:36;;;;;;;15.25;6.78;;;;;;;-0.07;100.00;99837.88;5151109;27;20099;-53
2022/01/19 07:21:03;;;;;;;18.42;7.60;;;;;;;0.07;100.00;99821.88;5151515;27;20099;-50
2022/01/19 07:23:30;;;;;;;18.35;8.35;;;;;;;0.07;100.00;99808.41;5151013;27;20404;-57
2022/01/19 07:25:56;;;;;;;16.05;7.47;;;;;;;-0.03;100.00;99807.41;5151047;27;20058;-55
2022/01/19 07:28:22;;;;;;;15.75;7.30;;;;;;;-0.04;100.00;99797.69;5151154;27;20042;-53
2022/01/19 07:30:49;;;;;;;28.08;8.73;;;;;;;-0.05;100.00;99790.69;5151404;27;20778;-53
2022/01/19 07:33:15;;;;;;;15.68;7.45;;;;;;;-0.09;100.00;99800.44;5150880;27;20061;-52
2022/01/19 07:35:41;;;;;;;19.05;8.07;;;;;;;-0.09;100.00;99811.22;5150776;27;20054;-55
2022/01/19 07:38:08;;;;;;;26.23;10.73;;;;;;;-0.02;100.00;99822.47;5151084;27;20054;-53
2022/01/19 07:40:34;;;;;;;20.75;8.45;;;;;;;0.08;100.00;99813.53;5151117;27;20442;-51
2022/01/19 07:43:01;;;;;;;15.70;7.60;;;;;;;0.11;100.00;99806.78;5154250;27;20099;-51
2022/01/19 07:45:27;;;;;;;17.48;6.88;;;;;;;0.16;100.00;99812.91;5154083;27;20413;-59
2022/01/19 07:47:54;;;;;;;18.48;8.00;;;;;;;0.20;100.00;99816.69;5160803;27;20046;-51
2022/01/19 07:50:21;;;;;;;23.48;8.15;;;;;;;0.21;100.00;99802.13;5175189;27;20050;-54
2022/01/19 07:52:47;;;;;;;20.65;7.32;;;;;;;0.25;100.00;99806.94;5175187;27;20050;-55
2022/01/19 07:55:14;;;;;;;19.40;7.35;;;;;;;0.34;100.00;99803.38;5175151;27;20049;-56
2022/01/19 07:57:45;;;;;;;15.52;7.40;;;;;;;0.33;100.00;99782.06;5174991;27;20053;-55
2022/01/19 08:00:12;;;;;;;15.60;7.80;;;;;;;0.28;100.00;99780.22;5174875;27;20042;-58
2022/01/19 08:02:40;;;;;;;21.85;9.07;;;;;;;0.25;100.00;99783.47;5174541;27;20134;-58
2022/01/19 08:05:07;;;;;;;14.80;7.22;;;;;;;0.31;100.00;99793.16;5175285;27;20521;-59
2022/01/19 08:07:33;;;;;;;16.45;7.60;;;;;;;0.36;100.00;99784.19;5175130;27;20061;-56
2022/01/19 08:10:00;;;;;;;17.80;7.90;;;;;;;0.37;100.00;99780.44;5167781;27;20050;-56
2022/01/19 08:12:27;;;;;;;34.58;11.40;;;;;;;0.34;100.00;99772.91;5163846;27;20088;-57
2022/01/19 08:14:53;;;;;;;17.83;8.05;;;;;;;0.31;100.00;99781.56;5156077;27;20527;-57
2022/01/19 08:17:20;;;;;;;17.77;8.95;;;;;;;0.34;100.00;99781.00;5158000;27;20061;-57
2022/01/19 08:19:47;;;;;;;19.15;8.65;;;;;;;0.34;100.00;99789.09;5153819;27;20099;-57
2022/01/19 08:22:14;;;;;;;20.63;9.02;;;;;;;0.33;100.00;99784.75;5153848;27;20054;-54
2022/01/19 08:24:41;;;;;;;23.85;10.30;;;;;;;0.25;100.00;99783.47;5153751;27;20047;-60
2022/01/19 08:27:07;;;;;;;19.83;9.57;;;;;;;0.32;100.00;99773.19;5153600;27;20063;-52
2022/01/19 08:29:34;;;;;;;19.67;8.90;;;;;;;0.34;100.00;99779.09;5153445;27;20047;-57
2022/01/19 08:32:00;;;;;;;20.27;9.80;;;;;;;0.35;100.00;99774.50;5153329;27;20127;-53
2022/01/19 08:34:26;;;;;;;18.83;8.48;;;;;;;0.32;100.00;99777.78;5153223;27;20053;-55
2022/01/19 08:36:53;;;;;;;19.60;9.93;;;;;;;0.30;100.00;99771.84;5152859;27;20046;-57
2022/01/19 08:39:19;;;;;;;24.63;11.13;;;;;;;0.38;100.00;99765.84;5153107;27;20469;-56
2022/01/19 08:41:45;;;;;;;25.70;10.52;;;;;;;0.38;100.00;99772.06;5153492;27;20562;-57
2022/01/19 08:44:11;;;;;;;19.42;9.15;;;;;;;0.40;100.00;99771.75;5163526;27;20050;-56
2022/01/19 08:46:39;;;;;;;16.08;8.52;;;;;;;0.41;100.00;99766.09;5174039;27;20415;-56
2022/01/19 08:49:05;;;;;;;21.00;8.75;;;;;;;0.41;100.00;99752.59;5174632;27;20073;-55
2022/01/19 08:51:32;;;;;;;21.75;8.20;;;;;;;0.42;100.00;99750.72;5173702;27;20049;-56
2022/01/19 08:53:58;;;;;;;18.85;9.75;;;;;;;0.42;100.00;99742.63;5172866;27;20050;-56
2022/01/19 08:56:24;;;;;;;20.55;9.68;;;;;;;0.44;100.00;99746.66;5174311;27;20054;-56
2022/01/19 08:58:51;;;;;;;19.52;8.63;;;;;;;0.41;100.00;99739.13;5174237;27;20118;-55
2022/01/19 09:01:17;;;;;;;26.08;9.68;;;;;;;0.36;100.00;99731.06;5174174;27;20471;-55
2022/01/19 09:03:44;;;;;;;19.27;8.98;;;;;;;0.39;100.00;99732.41;5174059;27;20046;-56
2022/01/19 09:06:10;;;;;;;21.00;10.32;;;;;;;0.44;100.00;99733.16;5174334;27;20050;-58
2022/01/19 09:08:37;;;;;;;19.55;9.30;;;;;;;0.40;100.00;99731.28;5173911;27;20047;-56
2022/01/19 09:11:05;;;;;;;18.27;8.32;;;;;;;0.45;100.00;99736.66;5173912;27;20046;-56
2022/01/19 09:13:32;;;;;;;17.90;8.73;;;;;;;0.47;100.00;99737.19;5173749;27;20481;-56
2022/01/19 09:15:58;;;;;;;14.75;8.38;;;;;;;0.46;100.00;99735.56;5173780;27;20050;-54
2022/01/19 09:18:25;;;;;;;15.55;8.90;;;;;;;0.55;100.00;99735.75;5173900;27;20057;-54
2022/01/19 09:20:52;;;;;;;20.95;8.70;;;;;;;0.55;100.00;99733.88;5173682;27;20042;-55
2022/01/19 09:23:18;;;;;;;18.58;8.48;;;;;;;0.58;100.00;99733.31;5173836;27;20050;-51
2022/01/19 09:25:45;;;;;;;14.38;7.13;;;;;;;0.53;100.00;99725.25;5173683;27;20058;-55
2022/01/19 09:28:11;;;;;;;23.55;8.15;;;;;;;0.58;100.00;99727.09;5173902;27;20042;-54
2022/01/19 09:30:40;;;;;;;14.73;8.60;;;;;;;0.58;100.00;99722.50;5173336;27;20102;-55
2022/01/19 09:33:07;;;;;;;13.90;8.52;;;;;;;0.57;100.00;99720.09;5173695;27;20075;-54
2022/01/19 09:35:51;;;;;;;18.20;8.55;;;;;;;0.61;100.00;99711.16;5172990;27;20056;-54
2022/01/19 09:38:19;;;;;;;15.45;8.18;;;;;;;0.59;100.00;99709.81;5172911;27;20050;-54
2022/01/19 09:40:46;;;;;;;11.57;7.70;;;;;;;0.65;100.00;99708.69;5173087;27;20054;-56
2022/01/19 09:43:12;;;;;;;13.98;7.45;;;;;;;0.66;100.00;99708.38;5173240;27;20109;-54
2022/01/19 09:45:39;;;;;;;16.60;8.35;;;;;;;0.72;100.00;99698.34;5173066;27;20046;-56
2022/01/19 09:48:06;;;;;;;13.15;7.65;;;;;;;0.71;100.00;99691.34;5173257;27;20053;-52
2022/01/19 09:50:33;;;;;;;14.73;7.88;;;;;;;0.61;100.00;99684.16;5172832;27;20056;-56
2022/01/19 09:53:03;;;;;;;18.60;8.82;;;;;;;0.57;100.00;99683.13;5173076;27;20110;-55
2022/01/19 09:55:30;;;;;;;15.50;8.52;;;;;;;0.63;100.00;99678.47;5151995;27;20075;-54
2022/01/19 09:57:56;;;;;;;12.82;7.50;;;;;;;0.69;100.00;99680.03;5152458;27;20042;-52
2022/01/19 10:00:23;;;;;;;14.63;7.97;;;;;;;0.76;100.00;99679.69;5152270;27;20054;-52
2022/01/19 10:03:14;;;;;;;16.08;8.27;;;;;;;0.84;100.00;99681.75;5153428;27;20047;-60
2022/01/19 10:06:03;;;;;;;15.75;7.97;;;;;;;0.89;100.00;99679.78;5151776;27;20451;-58
2022/01/19 10:08:35;;;;;;;14.32;7.20;;;;;;;0.94;100.00;99666.25;5151983;27;20361;-57
2022/01/19 10:11:16;;;;;;;14.60;7.72;;;;;;;0.96;100.00;99657.03;5152203;27;20493;-58
2022/01/19 10:19:19;;;;;;;15.18;7.63;;;;;;;0.96;100.00;99647.03;5152020;27;20130;-58
2022/01/19 10:22:09;;;;;;;15.80;7.82;;;;;;;1.04;100.00;99643.72;5151775;27;20050;-52
2022/01/19 10:24:39;;;;;;;14.05;8.23;;;;;;;1.02;100.00;99639.69;5151802;27;20047;-56
2022/01/19 10:27:25;;;;;;;16.92;7.93;;;;;;;1.02;100.00;99640.50;5151713;27;20050;-55
2022/01/19 10:29:53;;;;;;;14.68;7.70;;;;;;;1.05;100.00;99639.13;5151789;27;20047;-54
2022/01/19 10:32:21;;;;;;;18.50;8.65;;;;;;;1.11;100.00;99633.34;5151619;27;20149;-55
2022/01/19 10:34:48;;;;;;;16.52;8.52;;;;;;;1.09;100.00;99615.84;5169167;27;20056;-55
2022/01/19 10:37:22;;;;;;;18.42;9.05;;;;;;;1.15;100.00;99628.19;5172400;27;20058;-54
2022/01/19 10:39:50;;;;;;;17.52;7.70;;;;;;;1.09;100.00;99623.94;5172292;27;20511;-53
2022/01/19 10:42:17;;;;;;;15.07;8.90;;;;;;;1.14;100.00;99623.88;5172746;27;20057;-53
2022/01/19 10:44:48;;;;;;;18.17;8.85;;;;;;;1.16;100.00;99627.06;5172350;27;20576;-51
2022/01/19 10:47:15;;;;;;;31.60;13.73;;;;;;;1.18;100.00;99614.91;5172099;27;20141;-54
2022/01/19 10:49:50;;;;;;;22.52;11.38;;;;;;;1.20;100.00;99616.50;5163443;27;20047;-51
2022/01/19 10:52:28;;;;;;;30.10;12.10;;;;;;;1.22;100.00;99611.63;5151246;27;20569;-52
2022/01/19 10:54:57;;;;;;;15.77;8.52;;;;;;;1.26;100.00;99616.13;5151461;27;20043;-54
2022/01/19 10:57:24;;;;;;;21.63;10.77;;;;;;;1.23;100.00;99618.59;5151704;27;20242;-52
2022/01/19 10:59:51;;;;;;;20.75;8.80;;;;;;;1.28;100.00;99619.34;5151423;27;20099;-55
2022/01/19 11:02:19;;;;;;;17.48;9.00;;;;;;;1.34;100.00;99618.19;5151116;27;20058;-54
2022/01/19 11:04:46;;;;;;;18.42;9.40;;;;;;;1.41;100.00;99609.72;5151242;27;20428;-55
2022/01/19 11:07:15;;;;;;;18.83;9.85;;;;;;;1.50;100.00;99609.84;5153863;27;20054;-59
2022/01/19 11:09:45;;;;;;;18.95;9.25;;;;;;;1.45;100.00;99602.63;5171730;27;20146;-55
2022/01/19 11:12:16;;;;;;;24.40;9.98;;;;;;;1.46;100.00;99596.13;5171594;27;20078;-53
2022/01/19 11:14:45;;;;;;;17.85;8.95;;;;;;;1.38;100.00;99586.78;5171676;27;20054;-55
2022/01/19 11:17:12;;;;;;;18.10;10.15;;;;;;;1.38;100.00;99581.38;5170103;27;20417;-55
2022/01/19 11:19:40;;;;;;;17.67;10.40;;;;;;;1.39;100.00;99584.88;5170625;27;20046;-51
2022/01/19 11:22:19;;;;;;;19.80;10.63;;;;;;;1.40;100.00;99589.22;5171587;27;20493;-51
2022/01/19 11:24:58;;;;;;;18.75;9.18;;;;;;;1.35;100.00;99587.38;5171601;27;20050;-51
2022/01/19 11:27:28;;;;;;;18.15;9.57;;;;;;;1.34;100.00;99588.47;5168786;27;20058;-53
2022/01/19 11:30:19;;;;;;;20.30;9.88;;;;;;;1.44;100.00;99592.91;5150891;27;20051;-52
2022/01/19 11:33:14;;;;;;;22.58;10.02;;;;;;;1.37;100.00;99576.28;5150385;27;20047;-51
2022/01/19 11:35:43;;;;;;;23.48;9.93;;;;;;;1.32;100.00;99579.06;5150346;27;20453;-53
2022/01/19 11:38:32;;;;;;;19.73;10.82;;;;;;;1.39;100.00;99576.78;5150537;27;20047;-52
2022/01/19 11:40:59;;;;;;;21.73;10.43;;;;;;;1.42;100.00;99571.59;5150962;27;20103;-53
2022/01/19 11:43:29;;;;;;;20.85;9.80;;;;;;;1.49;100.00;99570.41;5151660;27;20047;-54
2022/01/19 11:45:56;;;;;;;24.52;11.10;;;;;;;1.53;100.00;99571.44;5162861;27;20465;-54
2022/01/19 11:48:26;;;;;;;22.30;11.38;;;;;;;1.54;100.00;99560.34;5171420;27;20412;-54
2022/01/19 11:50:54;;;;;;;21.60;11.13;;;;;;;1.57;100.00;99561.66;5170016;27;20473;-54
2022/01/19 11:53:21;;;;;;;21.38;11.43;;;;;;;1.53;100.00;99552.50;5164744;27;20047;-54
2022/01/19 11:56:09;;;;;;;31.30;11.90;;;;;;;1.50;100.00;99556.63;5154256;27;20096;-53
2022/01/19 11:58:36;;;;;;;21.65;10.88;;;;;;;1.42;100.00;99558.06;5165313;27;20164;-51
2022/01/19 12:01:19;;;;;;;22.75;12.27;;;;;;;1.40;100.00;99549.47;5171586;27;20054;-54
2022/01/19 12:03:46;;;;;;;22.13;11.83;;;;;;;1.42;100.00;99555.38;5160129;27;20468;-51
2022/01/19 12:06:29;;;;;;;24.23;11.90;;;;;;;1.43;100.00;99558.88;5157884;27;20054;-53
2022/01/19 12:08:56;;;;;;;23.60;11.38;;;;;;;1.46;100.00;99555.59;5150452;27;20416;-53
2022/01/19 12:11:23;;;;;;;24.48;12.07;;;;;;;1.40;100.00;99549.47;5157794;27;20428;-51
2022/01/19 12:14:07;;;;;;;24.48;13.30;;;;;;;1.44;100.00;99549.69;5171127;27;20066;-53
2022/01/19 12:16:53;;;;;;;26.30;12.53;;;;;;;1.45;100.00;99554.00;5170582;27;20050;-53
2022/01/19 12:19:24;;;;;;;24.23;12.38;;;;;;;1.36;100.00;99550.34;5155269;27;20730;-54
2022/01/19 12:21:55;;;;;;;28.30;13.43;;;;;;;1.35;100.00;99544.16;5150024;27;20082;-51
2022/01/19 12:24:34;;;;;;;24.83;12.70;;;;;;;1.37;100.00;99549.28;5150156;27;20047;-52
2022/01/19 12:27:04;;;;;;;31.65;13.88;;;;;;;1.37;100.00;99541.97;5150507;27;20089;-49
2022/01/19 12:29:46;;;;;;;27.98;13.68;;;;;;;1.38;100.00;99531.97;5173015;27;20444;-51
2022/01/19 12:32:35;;;;;;;25.80;12.98;;;;;;;1.31;100.00;99535.03;5171057;27;20505;-51
2022/01/19 12:35:11;;;;;;;24.90;12.52;;;;;;;1.32;100.00;99522.31;5156651;27;20515;-52
2022/01/19 12:37:40;;;;;;;23.77;12.18;;;;;;;1.29;100.00;99520.22;5153683;27;20051;-54
2022/01/19 12:40:25;;;;;;;28.60;14.07;;;;;;;1.26;100.00;99510.78;5153295;27;20042;-52
2022/01/19 12:42:54;;;;;;;31.90;13.57;;;;;;;1.26;100.00;99504.59;5153627;27;20046;-52
2022/01/19 12:45:23;;;;;;;34.78;13.90;;;;;;;1.21;100.00;99497.38;5153359;27;20047;-53